createdAt,value
2022-10-14T00:02:45.670Z,101435.38
2022-10-14T00:08:09.070Z,101420.88
2022-10-14T00:13:30.792Z,101409.41
2022-10-14T00:18:52.551Z,101405.78
2022-10-14T00:24:16.134Z,101403.00
2022-10-14T00:29:37.812Z,101396.84
2022-10-14T00:34:59.503Z,101394.31
2022-10-14T00:40:21.166Z,101389.00
2022-10-14T00:45:42.822Z,101390.13
2022-10-14T00:51:04.610Z,101380.09
2022-10-14T00:56:29.566Z,101364.53
2022-10-14T01:01:51.319Z,101353.66
2022-10-14T01:07:26.965Z,101359.81
2022-10-14T01:13:17.651Z,101358.38
2022-10-14T01:18:42.368Z,101357.78
2022-10-14T01:24:05.596Z,101352.47
2022-10-14T01:29:57.908Z,101350.78
2022-10-14T01:35:35.136Z,101344.38
2022-10-14T01:41:06.853Z,101342.69
2022-10-14T01:46:30.157Z,101339.28
2022-10-14T01:51:59.657Z,101337.59
2022-10-14T01:57:26.852Z,101338.44
2022-10-14T02:02:48.647Z,101326.50
2022-10-14T02:08:18.213Z,101321.19
2022-10-14T02:13:54.743Z,101329.50
2022-10-14T02:19:29.076Z,101322.53
2022-10-14T02:24:57.846Z,101311.44
2022-10-14T02:30:21.034Z,101299.72
2022-10-14T02:35:43.686Z,101288.63
2022-10-14T02:41:09.058Z,101276.72
2022-10-14T02:46:30.879Z,101275.84
2022-10-14T02:51:52.531Z,101269.47
2022-10-14T02:57:14.174Z,101255.81
2022-10-14T03:02:35.888Z,101250.28
2022-10-14T03:07:57.647Z,101240.31
2022-10-14T03:13:19.461Z,101242.22
2022-10-14T03:18:41.128Z,101233.06
2022-10-14T03:24:02.841Z,101233.06
2022-10-14T03:29:24.870Z,101228.59
2022-10-14T03:34:46.492Z,101231.59
2022-10-14T03:40:08.665Z,101226.91
2022-10-14T03:45:30.328Z,101225.22
2022-10-14T03:50:52.019Z,101213.28
2022-10-14T03:56:13.944Z,101211.59
2022-10-14T04:01:35.750Z,101213.53
2022-10-14T04:06:58.072Z,101213.53
2022-10-14T04:12:20.053Z,101208.22
2022-10-14T04:17:41.897Z,101206.28
2022-10-14T04:23:03.679Z,101208.22
2022-10-14T04:28:25.336Z,101201.00
2022-10-14T04:33:47.070Z,101202.91
2022-10-14T04:39:08.740Z,101189.03
2022-10-14T04:44:30.445Z,101192.91
2022-10-14T04:49:52.141Z,101190.13
2022-10-14T04:55:13.825Z,101178.22
2022-10-14T05:00:35.523Z,101175.69
2022-10-14T05:11:18.873Z,101169.53
2022-10-14T05:16:40.519Z,101165.19
2022-10-14T05:22:02.179Z,101162.53
2022-10-14T05:27:23.849Z,101152.66
2022-10-14T05:32:45.481Z,101141.56
2022-10-14T05:38:07.220Z,101130.47
2022-10-14T05:43:32.437Z,101131.28
2022-10-14T05:48:54.404Z,101127.09
2022-10-14T05:54:16.141Z,101130.47
2022-10-14T05:59:37.890Z,101124.06
2022-10-14T06:04:59.726Z,101123.22
2022-10-14T06:10:21.440Z,101119.59
2022-10-14T06:15:43.145Z,101107.69
2022-10-14T06:21:06.033Z,101102.38
2022-10-14T06:26:27.858Z,101107.91
2022-10-14T06:31:49.511Z,101099.84
2022-10-14T06:37:11.232Z,101102.88
2022-10-14T06:42:34.169Z,101098.63
2022-10-14T06:47:56.943Z,101093.94
2022-10-14T06:53:19.124Z,101092.25
2022-10-14T06:58:40.904Z,101080.31
2022-10-14T07:04:04.528Z,101094.44
2022-10-14T07:09:27.383Z,101080.56
2022-10-14T07:14:49.163Z,101086.38
2022-10-14T07:20:12.358Z,101085.50
2022-10-14T07:25:34.142Z,101083.59
2022-10-14T07:31:03.611Z,101085.28
2022-10-14T07:36:25.444Z,101077.19
2022-10-14T07:41:47.117Z,101087.19
2022-10-14T07:47:08.811Z,101086.38
2022-10-14T07:52:30.505Z,101084.69
2022-10-14T07:57:52.154Z,101076.97
2022-10-14T08:03:13.864Z,101073.13
2022-10-14T08:08:36.060Z,101072.25
2022-10-14T08:13:58.921Z,101076.72
2022-10-14T08:19:20.675Z,101076.97
2022-10-14T08:24:42.331Z,101076.97
2022-10-14T08:30:10.247Z,101078.66
2022-10-14T08:35:32.838Z,101072.25
2022-10-14T08:41:14.437Z,101063.69
2022-10-14T08:46:59.367Z,101058.13
2022-10-14T08:52:46.423Z,101058.13
2022-10-14T08:58:39.062Z,101065.38
2022-10-14T09:04:04.345Z,101054.78
2022-10-14T09:09:32.994Z,101052.59
2022-10-14T09:15:18.084Z,101055.38
2022-10-14T09:20:41.424Z,101044.53
2022-10-14T09:26:11.736Z,101045.41
2022-10-14T09:37:30.107Z,101034.31
2022-10-14T09:42:57.526Z,101038.16
2022-10-14T09:48:29.764Z,101040.69
2022-10-14T09:53:54.317Z,101029.59
2022-10-14T09:59:21.440Z,101032.34
2022-10-14T10:04:47.283Z,101022.09
2022-10-14T10:10:22.160Z,101021.88
2022-10-14T10:15:57.552Z,101021.00
2022-10-14T10:21:27.537Z,101023.78
2022-10-14T10:26:50.486Z,101021.00
2022-10-14T10:32:19.699Z,101024.63
2022-10-14T10:38:22.827Z,101016.31
2022-10-14T10:43:57.516Z,101019.69
2022-10-14T10:49:38.711Z,101024.38
2022-10-14T10:55:45.509Z,101027.41
2022-10-14T11:01:37.775Z,101019.91
2022-10-14T11:07:37.044Z,101017.75
2022-10-14T11:13:06.034Z,101006.06
2022-10-14T11:18:49.161Z,100990.50
2022-10-14T11:24:22.724Z,100985.56
2022-10-14T11:29:50.239Z,100973.38
2022-10-14T11:35:36.535Z,100975.34
2022-10-14T11:41:00.873Z,100963.38
2022-10-14T11:46:29.321Z,100964.00
2022-10-14T11:52:25.967Z,100968.44
2022-10-14T11:57:53.610Z,100943.75
2022-10-14T12:03:41.074Z,100950.72
2022-10-14T12:09:06.488Z,100937.69
2022-10-14T12:14:35.370Z,100929.13
2022-10-14T12:20:01.823Z,100934.69
2022-10-14T12:25:26.639Z,100919.13
2022-10-14T12:30:48.515Z,100929.13
2022-10-14T12:36:33.206Z,100920.81
2022-10-14T12:41:59.783Z,100918.88
2022-10-14T12:47:24.857Z,100914.19
2022-10-14T12:52:56.183Z,100914.19
2022-10-14T12:58:25.050Z,100909.19
2022-10-14T13:03:57.882Z,100910.88
2022-10-14T13:09:32.304Z,100899.56
2022-10-14T13:14:58.348Z,100892.06
2022-10-14T13:20:45.994Z,100889.31
2022-10-14T13:26:13.711Z,100874.84
2022-10-14T13:31:35.309Z,100876.78
2022-10-14T13:37:19.950Z,100872.06
2022-10-14T13:42:42.164Z,100865.09
2022-10-14T13:48:04.116Z,100865.97
2022-10-14T13:53:25.944Z,100869.81
2022-10-14T13:58:47.951Z,100865.97
2022-10-14T14:04:22.681Z,100862.06
2022-10-14T14:09:52.417Z,100866.78
2022-10-14T14:15:40.739Z,100863.19
2022-10-14T14:21:02.956Z,100868.97
2022-10-14T14:26:36.679Z,100853.19
2022-10-14T14:32:08.123Z,100847.03
2022-10-14T14:43:14.186Z,100841.50
2022-10-14T14:48:37.228Z,100830.41
2022-10-14T14:53:59.220Z,100837.03
2022-10-14T14:59:28.181Z,100835.97
2022-10-14T15:05:10.717Z,100834.88
2022-10-14T15:10:32.662Z,100825.94
2022-10-14T15:15:54.410Z,100826.78
2022-10-14T15:21:19.588Z,100826.78
2022-10-14T15:26:41.398Z,100808.47
2022-10-14T15:32:15.097Z,100811.00
2022-10-14T15:37:36.790Z,100812.09
2022-10-14T15:42:58.986Z,100809.31
2022-10-14T15:48:20.757Z,100807.63
2022-10-14T15:53:42.819Z,100791.00
2022-10-14T15:59:04.458Z,100794.28
2022-10-14T16:04:28.059Z,100800.41
2022-10-14T16:09:49.804Z,100802.09
2022-10-14T16:15:16.632Z,100805.69
2022-10-14T16:20:38.546Z,100782.41
2022-10-14T16:26:00.487Z,100802.69
2022-10-14T16:31:22.558Z,100785.56
2022-10-14T16:36:44.907Z,100788.38
2022-10-14T16:42:06.597Z,100777.97
2022-10-14T16:47:28.512Z,100784.22
2022-10-14T16:53:09.545Z,100765.97
2022-10-14T16:58:31.285Z,100765.97
2022-10-14T17:03:55.210Z,100775.94
2022-10-14T17:09:18.569Z,100781.50
2022-10-14T17:14:40.263Z,100781.75
2022-10-14T17:20:02.208Z,100775.38
2022-10-14T17:25:23.848Z,100779.25
2022-10-14T17:30:45.508Z,100776.22
2022-10-14T17:36:08.890Z,100778.91
2022-10-14T17:41:30.932Z,100769.94
2022-10-14T17:46:53.504Z,100774.41
2022-10-14T17:52:15.118Z,100770.47
2022-10-14T17:57:37.492Z,100774.22
2022-10-14T18:02:59.186Z,100787.91
2022-10-14T18:08:20.949Z,100786.53
2022-10-14T18:13:43.382Z,100799.31
2022-10-14T18:19:09.278Z,100786.53
2022-10-14T18:24:30.985Z,100785.97
2022-10-14T18:29:52.695Z,100781.53
2022-10-14T18:35:14.407Z,100784.31
2022-10-14T18:40:37.000Z,100776.56
2022-10-14T18:46:14.949Z,100783.75
2022-10-14T18:51:38.545Z,100765.44
2022-10-14T18:57:00.365Z,100761.09
2022-10-14T19:02:22.991Z,100751.75
2022-10-14T19:07:44.921Z,100753.53
2022-10-14T19:13:06.701Z,100744.19
2022-10-14T19:18:28.501Z,100758.69
2022-10-14T19:23:50.427Z,100739.88
2022-10-14T19:29:14.087Z,100748.84
2022-10-14T19:34:35.718Z,100749.41
2022-10-14T19:39:57.392Z,100737.78
2022-10-14T19:45:19.082Z,100733.38
2022-10-14T19:50:41.992Z,100727.00
2022-10-14T19:56:04.960Z,100723.41
2022-10-14T20:01:28.840Z,100720.69
2022-10-14T20:06:50.649Z,100714.59
2022-10-14T20:12:12.392Z,100724.28
2022-10-14T20:17:34.063Z,100722.31
2022-10-14T20:22:55.725Z,100728.69
2022-10-14T20:28:19.793Z,100718.66
2022-10-14T20:33:41.791Z,100723.06
2022-10-14T20:39:03.652Z,100721.09
2022-10-14T20:44:25.459Z,100737.72
2022-10-14T20:49:47.148Z,100736.00
2022-10-14T20:55:08.904Z,100737.88
2022-10-14T21:00:30.651Z,100729.47
2022-10-14T21:05:52.299Z,100733.06
2022-10-14T21:11:16.022Z,100743.28
2022-10-14T21:16:39.906Z,100742.94
2022-10-14T21:22:02.852Z,100750.66
2022-10-14T21:27:24.740Z,100738.66
2022-10-14T21:32:46.673Z,100732.44
2022-10-14T21:38:08.302Z,100741.56
2022-10-14T21:43:32.243Z,100744.31
2022-10-14T21:48:57.186Z,100722.63
2022-10-14T21:54:19.080Z,100711.19
2022-10-14T21:59:40.749Z,100711.97
2022-10-14T22:05:02.427Z,100717.78
2022-10-14T22:10:42.196Z,100716.63
2022-10-14T22:16:03.931Z,100696.59
2022-10-14T22:21:27.662Z,100695.16
2022-10-14T22:26:50.958Z,100704.34
2022-10-14T22:32:12.597Z,100704.84
2022-10-14T22:37:34.285Z,100715.66
2022-10-14T22:42:56.950Z,100713.97
2022-10-14T22:48:18.605Z,100710.59
2022-10-14T22:53:41.676Z,100703.66
2022-10-14T22:59:06.430Z,100694.47
2022-10-14T23:04:28.073Z,100687.50
2022-10-14T23:09:49.881Z,100693.31
2022-10-14T23:15:11.513Z,100689.97
2022-10-14T23:20:35.180Z,100683.56
2022-10-14T23:25:56.828Z,100687.69
2022-10-14T23:31:20.756Z,100689.66
2022-10-14T23:36:42.940Z,100682.66
2022-10-14T23:42:04.761Z,100689.31
2022-10-14T23:47:26.599Z,100688.50
2022-10-14T23:52:48.270Z,100679.56
2022-10-14T23:58:10.660Z,100681.53
